sensor_id;sensor_type;location;lat;lon;timestamp;P1;durP1;ratioP1;P2;durP2;ratioP2
41799;SDS011;27468;47.460;19.034;2022-12-10T00:00:22;22.38;;;13.55;;
41799;SDS011;27468;47.460;19.034;2022-12-10T00:02:47;19.13;;;11.85;;
41799;SDS011;27468;47.460;19.034;2022-12-10T00:05:13;19.63;;;12.15;;
41799;SDS011;27468;47.460;19.034;2022-12-10T00:07:38;18.50;;;12.15;;
41799;SDS011;27468;47.460;19.034;2022-12-10T00:10:04;21.48;;;12.65;;
41799;SDS011;27468;47.460;19.034;2022-12-10T00:12:29;21.05;;;12.85;;
41799;SDS011;27468;47.460;19.034;2022-12-10T00:14:55;22.63;;;13.10;;
41799;SDS011;27468;47.460;19.034;2022-12-10T00:17:20;20.52;;;12.20;;
41799;SDS011;27468;47.460;19.034;2022-12-10T00:19:45;19.55;;;12.02;;
41799;SDS011;27468;47.460;19.034;2022-12-10T00:22:11;20.40;;;11.88;;
41799;SDS011;27468;47.460;19.034;2022-12-10T00:24:36;18.15;;;12.18;;
41799;SDS011;27468;47.460;19.034;2022-12-10T00:27:01;21.13;;;12.43;;
41799;SDS011;27468;47.460;19.034;2022-12-10T00:29:27;20.33;;;12.18;;
41799;SDS011;27468;47.460;19.034;2022-12-10T00:31:52;22.30;;;12.98;;
41799;SDS011;27468;47.460;19.034;2022-12-10T00:34:18;22.95;;;12.50;;
41799;SDS011;27468;47.460;19.034;2022-12-10T00:36:44;20.13;;;13.02;;
41799;SDS011;27468;47.460;19.034;2022-12-10T00:39:12;23.25;;;12.35;;
41799;SDS011;27468;47.460;19.034;2022-12-10T00:41:39;21.63;;;12.88;;
41799;SDS011;27468;47.460;19.034;2022-12-10T00:44:04;21.80;;;13.48;;
41799;SDS011;27468;47.460;19.034;2022-12-10T00:46:30;22.83;;;12.68;;
41799;SDS011;27468;47.460;19.034;2022-12-10T00:48:55;25.42;;;14.45;;
41799;SDS011;27468;47.460;19.034;2022-12-10T00:51:23;21.63;;;12.93;;
41799;SDS011;27468;47.460;19.034;2022-12-10T00:53:50;22.67;;;13.82;;
41799;SDS011;27468;47.460;19.034;2022-12-10T00:56:18;20.88;;;12.75;;
41799;SDS011;27468;47.460;19.034;2022-12-10T00:58:45;22.77;;;13.40;;
41799;SDS011;27468;47.460;19.034;2022-12-10T01:01:14;22.45;;;13.23;;
41799;SDS011;27468;47.460;19.034;2022-12-10T01:03:42;22.80;;;13.25;;
41799;SDS011;27468;47.460;19.034;2022-12-10T01:06:12;20.65;;;13.10;;
41799;SDS011;27468;47.460;19.034;2022-12-10T01:08:44;23.35;;;13.27;;
41799;SDS011;27468;47.460;19.034;2022-12-10T01:11:11;21.85;;;12.68;;
41799;SDS011;27468;47.460;19.034;2022-12-10T01:13:38;19.75;;;12.93;;
41799;SDS011;27468;47.460;19.034;2022-12-10T01:16:05;21.13;;;13.52;;
41799;SDS011;27468;47.460;19.034;2022-12-10T01:18:31;20.38;;;13.05;;
41799;SDS011;27468;47.460;19.034;2022-12-10T01:21:00;21.88;;;13.68;;
41799;SDS011;27468;47.460;19.034;2022-12-10T01:23:33;22.58;;;13.55;;
41799;SDS011;27468;47.460;19.034;2022-12-10T01:26:01;24.45;;;13.35;;
41799;SDS011;27468;47.460;19.034;2022-12-10T01:28:32;23.07;;;13.77;;
41799;SDS011;27468;47.460;19.034;2022-12-10T01:31:00;24.65;;;13.80;;
41799;SDS011;27468;47.460;19.034;2022-12-10T01:33:29;22.23;;;13.02;;
41799;SDS011;27468;47.460;19.034;2022-12-10T01:35:55;21.88;;;13.13;;
41799;SDS011;27468;47.460;19.034;2022-12-10T01:38:21;21.42;;;12.88;;
41799;SDS011;27468;47.460;19.034;2022-12-10T01:40:47;20.45;;;12.65;;
41799;SDS011;27468;47.460;19.034;2022-12-10T01:43:13;23.38;;;13.32;;
41799;SDS011;27468;47.460;19.034;2022-12-10T01:45:39;22.58;;;13.05;;
41799;SDS011;27468;47.460;19.034;2022-12-10T01:48:05;22.02;;;13.10;;
41799;SDS011;27468;47.460;19.034;2022-12-10T01:50:31;25.40;;;13.63;;
41799;SDS011;27468;47.460;19.034;2022-12-10T01:52:57;26.45;;;13.57;;
41799;SDS011;27468;47.460;19.034;2022-12-10T01:55:40;23.48;;;13.73;;
41799;SDS011;27468;47.460;19.034;2022-12-10T01:58:14;23.83;;;13.35;;
41799;SDS011;27468;47.460;19.034;2022-12-10T02:01:25;24.67;;;13.85;;
41799;SDS011;27468;47.460;19.034;2022-12-10T02:06:39;23.60;;;12.75;;
41799;SDS011;27468;47.460;19.034;2022-12-10T02:15:12;27.20;;;14.90;;
41799;SDS011;27468;47.460;19.034;2022-12-10T02:17:48;24.85;;;13.70;;
41799;SDS011;27468;47.460;19.034;2022-12-10T02:20:18;26.27;;;14.90;;
41799;SDS011;27468;47.460;19.034;2022-12-10T02:25:20;32.45;;;14.88;;
41799;SDS011;27468;47.460;19.034;2022-12-10T02:27:56;34.13;;;16.48;;
41799;SDS011;27468;47.460;19.034;2022-12-10T02:30:30;35.38;;;15.90;;
41799;SDS011;27468;47.460;19.034;2022-12-10T02:32:58;30.98;;;15.57;;
41799;SDS011;27468;47.460;19.034;2022-12-10T02:35:27;35.30;;;17.15;;
41799;SDS011;27468;47.460;19.034;2022-12-10T02:37:57;28.90;;;15.25;;
41799;SDS011;27468;47.460;19.034;2022-12-10T02:40:30;28.75;;;15.05;;
41799;SDS011;27468;47.460;19.034;2022-12-10T02:42:58;28.05;;;15.13;;
41799;SDS011;27468;47.460;19.034;2022-12-10T02:45:24;28.35;;;14.52;;
41799;SDS011;27468;47.460;19.034;2022-12-10T02:47:53;29.80;;;15.02;;
41799;SDS011;27468;47.460;19.034;2022-12-10T02:50:25;27.23;;;15.55;;
41799;SDS011;27468;47.460;19.034;2022-12-10T02:52:50;30.45;;;15.65;;
41799;SDS011;27468;47.460;19.034;2022-12-10T02:55:16;29.70;;;14.90;;
41799;SDS011;27468;47.460;19.034;2022-12-10T03:00:32;30.88;;;15.00;;
41799;SDS011;27468;47.460;19.034;2022-12-10T03:05:54;29.00;;;14.95;;
41799;SDS011;27468;47.460;19.034;2022-12-10T03:08:25;32.22;;;15.20;;
41799;SDS011;27468;47.460;19.034;2022-12-10T03:13:42;23.67;;;12.25;;
41799;SDS011;27468;47.460;19.034;2022-12-10T03:16:13;18.13;;;11.20;;
41799;SDS011;27468;47.460;19.034;2022-12-10T03:18:40;18.80;;;10.90;;
41799;SDS011;27468;47.460;19.034;2022-12-10T03:21:06;23.98;;;12.50;;
41799;SDS011;27468;47.460;19.034;2022-12-10T03:23:35;23.40;;;13.52;;
41799;SDS011;27468;47.460;19.034;2022-12-10T03:26:03;23.23;;;13.40;;
41799;SDS011;27468;47.460;19.034;2022-12-10T03:28:34;25.30;;;13.80;;
41799;SDS011;27468;47.460;19.034;2022-12-10T03:31:11;22.80;;;13.40;;
41799;SDS011;27468;47.460;19.034;2022-12-10T03:33:38;22.13;;;11.60;;
41799;SDS011;27468;47.460;19.034;2022-12-10T03:36:04;25.83;;;13.57;;
41799;SDS011;27468;47.460;19.034;2022-12-10T03:38:31;22.65;;;12.35;;
41799;SDS011;27468;47.460;19.034;2022-12-10T03:40:57;14.57;;;9.90;;
41799;SDS011;27468;47.460;19.034;2022-12-10T03:43:23;14.50;;;9.38;;
41799;SDS011;27468;47.460;19.034;2022-12-10T03:45:48;12.60;;;8.15;;
41799;SDS011;27468;47.460;19.034;2022-12-10T03:48:14;13.27;;;8.57;;
41799;SDS011;27468;47.460;19.034;2022-12-10T03:50:39;13.55;;;8.30;;
41799;SDS011;27468;47.460;19.034;2022-12-10T03:53:04;12.52;;;7.95;;
41799;SDS011;27468;47.460;19.034;2022-12-10T03:55:30;13.82;;;8.57;;
41799;SDS011;27468;47.460;19.034;2022-12-10T03:57:56;12.85;;;8.20;;
41799;SDS011;27468;47.460;19.034;2022-12-10T04:00:21;12.05;;;8.15;;
41799;SDS011;27468;47.460;19.034;2022-12-10T04:02:47;15.07;;;8.88;;
41799;SDS011;27468;47.460;19.034;2022-12-10T04:05:12;12.65;;;8.20;;
41799;SDS011;27468;47.460;19.034;2022-12-10T04:07:37;12.15;;;8.07;;
41799;SDS011;27468;47.460;19.034;2022-12-10T04:10:03;16.75;;;8.60;;
41799;SDS011;27468;47.460;19.034;2022-12-10T04:12:29;15.38;;;7.93;;
41799;SDS011;27468;47.460;19.034;2022-12-10T04:14:54;15.32;;;8.07;;
41799;SDS011;27468;47.460;19.034;2022-12-10T04:17:38;17.48;;;8.57;;
41799;SDS011;27468;47.460;19.034;2022-12-10T04:20:03;19.50;;;8.90;;
41799;SDS011;27468;47.460;19.034;2022-12-10T04:22:29;21.23;;;9.45;;
41799;SDS011;27468;47.460;19.034;2022-12-10T04:25:13;20.00;;;8.93;;
41799;SDS011;27468;47.460;19.034;2022-12-10T04:27:57;18.48;;;8.70;;
41799;SDS011;27468;47.460;19.034;2022-12-10T04:30:22;20.15;;;8.80;;
41799;SDS011;27468;47.460;19.034;2022-12-10T04:32:48;19.35;;;9.35;;
41799;SDS011;27468;47.460;19.034;2022-12-10T04:35:13;18.73;;;8.57;;
41799;SDS011;27468;47.460;19.034;2022-12-10T04:37:39;17.08;;;8.25;;
41799;SDS011;27468;47.460;19.034;2022-12-10T04:40:05;23.27;;;9.00;;
41799;SDS011;27468;47.460;19.034;2022-12-10T04:42:31;19.33;;;8.38;;
41799;SDS011;27468;47.460;19.034;2022-12-10T04:44:56;21.58;;;8.88;;
41799;SDS011;27468;47.460;19.034;2022-12-10T04:47:22;19.40;;;8.73;;
41799;SDS011;27468;47.460;19.034;2022-12-10T04:49:47;19.95;;;8.20;;
41799;SDS011;27468;47.460;19.034;2022-12-10T04:52:14;19.65;;;8.75;;
41799;SDS011;27468;47.460;19.034;2022-12-10T04:54:41;17.83;;;8.82;;
41799;SDS011;27468;47.460;19.034;2022-12-10T04:57:07;19.95;;;8.75;;
41799;SDS011;27468;47.460;19.034;2022-12-10T04:59:34;22.77;;;9.02;;
41799;SDS011;27468;47.460;19.034;2022-12-10T05:02:01;22.30;;;8.88;;
41799;SDS011;27468;47.460;19.034;2022-12-10T05:04:26;23.15;;;9.18;;
41799;SDS011;27468;47.460;19.034;2022-12-10T05:06:51;20.27;;;8.65;;
41799;SDS011;27468;47.460;19.034;2022-12-10T05:09:17;23.38;;;8.90;;
41799;SDS011;27468;47.460;19.034;2022-12-10T05:11:43;22.23;;;8.20;;
41799;SDS011;27468;47.460;19.034;2022-12-10T05:14:12;20.15;;;8.35;;
41799;SDS011;27468;47.460;19.034;2022-12-10T05:16:39;23.52;;;8.80;;
41799;SDS011;27468;47.460;19.034;2022-12-10T05:19:05;21.33;;;8.45;;
41799;SDS011;27468;47.460;19.034;2022-12-10T05:21:31;24.92;;;8.88;;
41799;SDS011;27468;47.460;19.034;2022-12-10T05:24:16;24.27;;;8.75;;
41799;SDS011;27468;47.460;19.034;2022-12-10T05:26:43;19.63;;;8.43;;
41799;SDS011;27468;47.460;19.034;2022-12-10T05:29:09;19.17;;;8.57;;
41799;SDS011;27468;47.460;19.034;2022-12-10T05:31:35;26.58;;;9.30;;
41799;SDS011;27468;47.460;19.034;2022-12-10T05:34:00;20.40;;;8.82;;
41799;SDS011;27468;47.460;19.034;2022-12-10T05:36:27;22.58;;;8.93;;
41799;SDS011;27468;47.460;19.034;2022-12-10T05:38:55;18.85;;;8.52;;
41799;SDS011;27468;47.460;19.034;2022-12-10T05:41:23;21.65;;;8.85;;
41799;SDS011;27468;47.460;19.034;2022-12-10T05:43:50;21.13;;;9.30;;
41799;SDS011;27468;47.460;19.034;2022-12-10T05:46:20;20.13;;;8.65;;
41799;SDS011;27468;47.460;19.034;2022-12-10T05:48:47;20.33;;;8.90;;
41799;SDS011;27468;47.460;19.034;2022-12-10T05:51:14;17.75;;;8.88;;
41799;SDS011;27468;47.460;19.034;2022-12-10T05:53:48;20.50;;;9.48;;
41799;SDS011;27468;47.460;19.034;2022-12-10T05:56:16;20.15;;;9.15;;
41799;SDS011;27468;47.460;19.034;2022-12-10T05:58:44;20.40;;;8.85;;
41799;SDS011;27468;47.460;19.034;2022-12-10T06:01:12;22.42;;;9.48;;
41799;SDS011;27468;47.460;19.034;2022-12-10T06:03:39;20.42;;;9.68;;
41799;SDS011;27468;47.460;19.034;2022-12-10T06:06:05;20.30;;;10.05;;
41799;SDS011;27468;47.460;19.034;2022-12-10T06:08:31;26.15;;;11.20;;
41799;SDS011;27468;47.460;19.034;2022-12-10T06:11:02;28.70;;;10.82;;
41799;SDS011;27468;47.460;19.034;2022-12-10T06:13:32;24.50;;;10.35;;
41799;SDS011;27468;47.460;19.034;2022-12-10T06:15:57;20.73;;;10.10;;
41799;SDS011;27468;47.460;19.034;2022-12-10T06:18:22;21.40;;;10.40;;
41799;SDS011;27468;47.460;19.034;2022-12-10T06:20:49;22.67;;;11.27;;
41799;SDS011;27468;47.460;19.034;2022-12-10T06:23:14;21.23;;;10.52;;
41799;SDS011;27468;47.460;19.034;2022-12-10T06:25:40;22.95;;;10.80;;
41799;SDS011;27468;47.460;19.034;2022-12-10T06:28:06;22.92;;;10.70;;
41799;SDS011;27468;47.460;19.034;2022-12-10T06:30:32;21.00;;;10.50;;
41799;SDS011;27468;47.460;19.034;2022-12-10T06:32:58;21.50;;;10.20;;
41799;SDS011;27468;47.460;19.034;2022-12-10T06:35:24;22.02;;;9.55;;
41799;SDS011;27468;47.460;19.034;2022-12-10T06:37:49;22.38;;;10.48;;
41799;SDS011;27468;47.460;19.034;2022-12-10T06:40:15;22.88;;;10.40;;
41799;SDS011;27468;47.460;19.034;2022-12-10T06:42:41;22.05;;;10.27;;
41799;SDS011;27468;47.460;19.034;2022-12-10T06:45:06;20.90;;;10.30;;
41799;SDS011;27468;47.460;19.034;2022-12-10T06:47:32;21.20;;;10.27;;
41799;SDS011;27468;47.460;19.034;2022-12-10T06:49:58;22.13;;;10.05;;
41799;SDS011;27468;47.460;19.034;2022-12-10T06:52:23;20.60;;;9.98;;
41799;SDS011;27468;47.460;19.034;2022-12-10T06:54:49;21.00;;;9.98;;
41799;SDS011;27468;47.460;19.034;2022-12-10T06:57:14;23.27;;;11.20;;
41799;SDS011;27468;47.460;19.034;2022-12-10T06:59:40;23.38;;;11.65;;
41799;SDS011;27468;47.460;19.034;2022-12-10T07:02:05;20.83;;;10.48;;
41799;SDS011;27468;47.460;19.034;2022-12-10T07:04:30;22.38;;;10.75;;
41799;SDS011;27468;47.460;19.034;2022-12-10T07:06:56;20.48;;;10.55;;
41799;SDS011;27468;47.460;19.034;2022-12-10T07:09:21;22.73;;;10.13;;
41799;SDS011;27468;47.460;19.034;2022-12-10T07:11:47;17.45;;;9.20;;
41799;SDS011;27468;47.460;19.034;2022-12-10T07:14:13;19.25;;;11.23;;
41799;SDS011;27468;47.460;19.034;2022-12-10T07:16:40;12.95;;;8.32;;
41799;SDS011;27468;47.460;19.034;2022-12-10T07:19:07;14.80;;;8.40;;
41799;SDS011;27468;47.460;19.034;2022-12-10T07:21:35;14.15;;;9.02;;
41799;SDS011;27468;47.460;19.034;2022-12-10T07:24:03;13.45;;;7.75;;
41799;SDS011;27468;47.460;19.034;2022-12-10T07:26:31;13.65;;;7.82;;
41799;SDS011;27468;47.460;19.034;2022-12-10T07:28:58;14.43;;;8.73;;
41799;SDS011;27468;47.460;19.034;2022-12-10T07:31:25;15.07;;;9.05;;
41799;SDS011;27468;47.460;19.034;2022-12-10T07:33:51;14.48;;;9.45;;
41799;SDS011;27468;47.460;19.034;2022-12-10T07:36:18;16.73;;;10.02;;
41799;SDS011;27468;47.460;19.034;2022-12-10T07:38:44;15.73;;;10.35;;
41799;SDS011;27468;47.460;19.034;2022-12-10T07:41:11;17.55;;;10.18;;
41799;SDS011;27468;47.460;19.034;2022-12-10T07:43:38;17.77;;;11.43;;
41799;SDS011;27468;47.460;19.034;2022-12-10T07:48:39;20.13;;;12.05;;
41799;SDS011;27468;47.460;19.034;2022-12-10T07:51:06;20.80;;;12.48;;
41799;SDS011;27468;47.460;19.034;2022-12-10T07:53:32;22.77;;;13.32;;
41799;SDS011;27468;47.460;19.034;2022-12-10T07:55:58;24.33;;;13.20;;
41799;SDS011;27468;47.460;19.034;2022-12-10T07:58:23;20.27;;;12.18;;
41799;SDS011;27468;47.460;19.034;2022-12-10T08:00:49;20.15;;;11.63;;
41799;SDS011;27468;47.460;19.034;2022-12-10T08:03:14;21.85;;;12.27;;
41799;SDS011;27468;47.460;19.034;2022-12-10T08:05:40;20.58;;;12.65;;
41799;SDS011;27468;47.460;19.034;2022-12-10T08:08:05;22.13;;;12.38;;
41799;SDS011;27468;47.460;19.034;2022-12-10T08:10:34;23.83;;;12.63;;
41799;SDS011;27468;47.460;19.034;2022-12-10T08:13:01;24.20;;;12.98;;
41799;SDS011;27468;47.460;19.034;2022-12-10T08:15:26;21.50;;;12.38;;
41799;SDS011;27468;47.460;19.034;2022-12-10T08:17:53;24.50;;;13.30;;
41799;SDS011;27468;47.460;19.034;2022-12-10T08:20:19;24.42;;;13.45;;
41799;SDS011;27468;47.460;19.034;2022-12-10T08:22:44;25.20;;;13.23;;
41799;SDS011;27468;47.460;19.034;2022-12-10T08:25:10;21.70;;;12.88;;
41799;SDS011;27468;47.460;19.034;2022-12-10T08:27:35;22.75;;;13.27;;
41799;SDS011;27468;47.460;19.034;2022-12-10T08:30:01;21.80;;;12.85;;
41799;SDS011;27468;47.460;19.034;2022-12-10T08:32:26;20.73;;;11.88;;
41799;SDS011;27468;47.460;19.034;2022-12-10T08:34:52;17.30;;;9.63;;
41799;SDS011;27468;47.460;19.034;2022-12-10T08:37:17;17.33;;;9.82;;
41799;SDS011;27468;47.460;19.034;2022-12-10T08:39:43;15.38;;;7.57;;
41799;SDS011;27468;47.460;19.034;2022-12-10T08:42:08;13.15;;;8.15;;
41799;SDS011;27468;47.460;19.034;2022-12-10T08:44:33;15.60;;;9.38;;
41799;SDS011;27468;47.460;19.034;2022-12-10T08:46:59;15.18;;;9.10;;
41799;SDS011;27468;47.460;19.034;2022-12-10T08:49:24;14.98;;;9.43;;
41799;SDS011;27468;47.460;19.034;2022-12-10T08:51:49;14.25;;;8.63;;
41799;SDS011;27468;47.460;19.034;2022-12-10T08:54:15;13.60;;;8.40;;
41799;SDS011;27468;47.460;19.034;2022-12-10T08:56:40;14.38;;;8.95;;
41799;SDS011;27468;47.460;19.034;2022-12-10T08:59:06;14.02;;;8.80;;
41799;SDS011;27468;47.460;19.034;2022-12-10T09:01:32;11.73;;;7.63;;
41799;SDS011;27468;47.460;19.034;2022-12-10T09:03:57;14.73;;;8.57;;
41799;SDS011;27468;47.460;19.034;2022-12-10T09:06:23;10.65;;;6.97;;
41799;SDS011;27468;47.460;19.034;2022-12-10T09:08:49;9.73;;;6.95;;
41799;SDS011;27468;47.460;19.034;2022-12-10T09:13:45;9.82;;;6.05;;
41799;SDS011;27468;47.460;19.034;2022-12-10T09:16:11;7.85;;;5.65;;
41799;SDS011;27468;47.460;19.034;2022-12-10T09:18:37;9.98;;;6.40;;
41799;SDS011;27468;47.460;19.034;2022-12-10T09:21:10;8.82;;;5.95;;
41799;SDS011;27468;47.460;19.034;2022-12-10T09:23:38;10.07;;;6.65;;
41799;SDS011;27468;47.460;19.034;2022-12-10T09:26:05;9.68;;;5.55;;
41799;SDS011;27468;47.460;19.034;2022-12-10T09:28:31;9.40;;;5.95;;
41799;SDS011;27468;47.460;19.034;2022-12-10T09:30:58;8.70;;;6.18;;
41799;SDS011;27468;47.460;19.034;2022-12-10T09:33:25;8.82;;;6.15;;
41799;SDS011;27468;47.460;19.034;2022-12-10T09:35:51;10.43;;;6.68;;
41799;SDS011;27468;47.460;19.034;2022-12-10T09:38:17;9.95;;;6.25;;
41799;SDS011;27468;47.460;19.034;2022-12-10T09:40:46;9.63;;;6.43;;
41799;SDS011;27468;47.460;19.034;2022-12-10T09:43:26;16.92;;;10.57;;
41799;SDS011;27468;47.460;19.034;2022-12-10T09:52:12;19.73;;;12.55;;
41799;SDS011;27468;47.460;19.034;2022-12-10T09:57:06;19.50;;;12.55;;
41799;SDS011;27468;47.460;19.034;2022-12-10T09:59:42;17.80;;;11.63;;
41799;SDS011;27468;47.460;19.034;2022-12-10T10:04:46;15.40;;;9.50;;
41799;SDS011;27468;47.460;19.034;2022-12-10T10:07:25;13.25;;;8.68;;
41799;SDS011;27468;47.460;19.034;2022-12-10T10:09:56;11.60;;;7.10;;
41799;SDS011;27468;47.460;19.034;2022-12-10T10:12:29;13.70;;;8.23;;
41799;SDS011;27468;47.460;19.034;2022-12-10T10:14:56;14.27;;;8.93;;
41799;SDS011;27468;47.460;19.034;2022-12-10T10:17:33;14.07;;;8.40;;
41799;SDS011;27468;47.460;19.034;2022-12-10T10:20:01;13.70;;;8.55;;
41799;SDS011;27468;47.460;19.034;2022-12-10T10:22:27;15.43;;;8.90;;
41799;SDS011;27468;47.460;19.034;2022-12-10T10:24:53;13.25;;;7.80;;
41799;SDS011;27468;47.460;19.034;2022-12-10T10:27:22;15.73;;;8.68;;
41799;SDS011;27468;47.460;19.034;2022-12-10T10:29:51;13.70;;;8.30;;
41799;SDS011;27468;47.460;19.034;2022-12-10T10:32:20;13.18;;;8.43;;
41799;SDS011;27468;47.460;19.034;2022-12-10T10:34:52;12.65;;;7.70;;
41799;SDS011;27468;47.460;19.034;2022-12-10T10:37:21;14.85;;;8.55;;
41799;SDS011;27468;47.460;19.034;2022-12-10T10:39:50;13.57;;;8.00;;
41799;SDS011;27468;47.460;19.034;2022-12-10T10:42:21;13.38;;;7.93;;
41799;SDS011;27468;47.460;19.034;2022-12-10T10:44:50;14.35;;;8.82;;
41799;SDS011;27468;47.460;19.034;2022-12-10T10:50:12;20.73;;;11.18;;
41799;SDS011;27468;47.460;19.034;2022-12-10T10:52:50;20.25;;;11.15;;
41799;SDS011;27468;47.460;19.034;2022-12-10T10:55:31;21.40;;;12.23;;
41799;SDS011;27468;47.460;19.034;2022-12-10T10:58:01;22.23;;;12.40;;
41799;SDS011;27468;47.460;19.034;2022-12-10T11:00:27;22.33;;;11.88;;
41799;SDS011;27468;47.460;19.034;2022-12-10T11:02:52;23.13;;;12.75;;
41799;SDS011;27468;47.460;19.034;2022-12-10T11:05:25;21.50;;;12.68;;
41799;SDS011;27468;47.460;19.034;2022-12-10T11:08:00;19.95;;;11.88;;
41799;SDS011;27468;47.460;19.034;2022-12-10T11:10:28;20.60;;;11.52;;
41799;SDS011;27468;47.460;19.034;2022-12-10T11:17:47;21.10;;;11.85;;
41799;SDS011;27468;47.460;19.034;2022-12-10T11:20:25;19.70;;;11.73;;
41799;SDS011;27468;47.460;19.034;2022-12-10T11:22:54;20.70;;;11.82;;
41799;SDS011;27468;47.460;19.034;2022-12-10T11:26:09;19.30;;;11.27;;
41799;SDS011;27468;47.460;19.034;2022-12-10T11:45:52;25.30;;;12.43;;
41799;SDS011;27468;47.460;19.034;2022-12-10T12:00:44;28.98;;;15.18;;
41799;SDS011;27468;47.460;19.034;2022-12-10T12:08:31;29.80;;;15.20;;
41799;SDS011;27468;47.460;19.034;2022-12-10T12:11:05;29.35;;;15.30;;
41799;SDS011;27468;47.460;19.034;2022-12-10T12:16:38;23.77;;;13.50;;
41799;SDS011;27468;47.460;19.034;2022-12-10T12:19:11;29.98;;;15.77;;
41799;SDS011;27468;47.460;19.034;2022-12-10T12:21:41;31.25;;;15.75;;
41799;SDS011;27468;47.460;19.034;2022-12-10T12:24:20;30.08;;;15.02;;
41799;SDS011;27468;47.460;19.034;2022-12-10T12:27:19;30.75;;;15.32;;
41799;SDS011;27468;47.460;19.034;2022-12-10T12:29:55;28.65;;;15.55;;
41799;SDS011;27468;47.460;19.034;2022-12-10T12:32:28;29.70;;;15.35;;
41799;SDS011;27468;47.460;19.034;2022-12-10T12:35:10;29.55;;;14.43;;
41799;SDS011;27468;47.460;19.034;2022-12-10T12:38:16;25.48;;;13.63;;
41799;SDS011;27468;47.460;19.034;2022-12-10T12:40:58;29.63;;;15.35;;
41799;SDS011;27468;47.460;19.034;2022-12-10T12:43:47;30.42;;;15.25;;
41799;SDS011;27468;47.460;19.034;2022-12-10T12:46:26;29.92;;;15.82;;
41799;SDS011;27468;47.460;19.034;2022-12-10T12:49:00;28.75;;;14.75;;
41799;SDS011;27468;47.460;19.034;2022-12-10T12:51:39;33.22;;;16.30;;
41799;SDS011;27468;47.460;19.034;2022-12-10T12:54:10;34.63;;;16.90;;
41799;SDS011;27468;47.460;19.034;2022-12-10T12:56:57;34.40;;;17.27;;
41799;SDS011;27468;47.460;19.034;2022-12-10T13:00:12;35.50;;;16.75;;
41799;SDS011;27468;47.460;19.034;2022-12-10T13:05:26;34.90;;;17.23;;
41799;SDS011;27468;47.460;19.034;2022-12-10T13:11:01;38.92;;;19.67;;
41799;SDS011;27468;47.460;19.034;2022-12-10T13:40:25;34.40;;;16.40;;
41799;SDS011;27468;47.460;19.034;2022-12-10T13:46:22;31.42;;;16.20;;
41799;SDS011;27468;47.460;19.034;2022-12-10T13:48:49;37.00;;;19.27;;
41799;SDS011;27468;47.460;19.034;2022-12-10T13:56:38;38.72;;;19.50;;
41799;SDS011;27468;47.460;19.034;2022-12-10T13:59:30;39.78;;;19.75;;
41799;SDS011;27468;47.460;19.034;2022-12-10T14:02:18;35.55;;;19.23;;
41799;SDS011;27468;47.460;19.034;2022-12-10T14:07:39;35.42;;;18.40;;
41799;SDS011;27468;47.460;19.034;2022-12-10T14:10:10;34.67;;;18.25;;
41799;SDS011;27468;47.460;19.034;2022-12-10T14:12:40;34.60;;;18.25;;
41799;SDS011;27468;47.460;19.034;2022-12-10T14:15:08;34.28;;;17.98;;
41799;SDS011;27468;47.460;19.034;2022-12-10T14:17:43;34.47;;;17.15;;
41799;SDS011;27468;47.460;19.034;2022-12-10T14:20:16;34.60;;;17.85;;
41799;SDS011;27468;47.460;19.034;2022-12-10T14:22:48;35.28;;;17.77;;
41799;SDS011;27468;47.460;19.034;2022-12-10T14:25:16;35.92;;;18.20;;
41799;SDS011;27468;47.460;19.034;2022-12-10T14:27:47;32.63;;;17.75;;
41799;SDS011;27468;47.460;19.034;2022-12-10T14:30:20;31.17;;;16.98;;
41799;SDS011;27468;47.460;19.034;2022-12-10T14:32:48;33.50;;;17.20;;
41799;SDS011;27468;47.460;19.034;2022-12-10T14:35:16;32.28;;;17.20;;
41799;SDS011;27468;47.460;19.034;2022-12-10T14:37:48;44.20;;;24.50;;
41799;SDS011;27468;47.460;19.034;2022-12-10T14:40:19;44.70;;;25.52;;
41799;SDS011;27468;47.460;19.034;2022-12-10T14:43:02;41.40;;;22.38;;
41799;SDS011;27468;47.460;19.034;2022-12-10T14:45:36;33.95;;;18.02;;
41799;SDS011;27468;47.460;19.034;2022-12-10T14:48:09;33.55;;;18.05;;
41799;SDS011;27468;47.460;19.034;2022-12-10T14:50:37;32.03;;;17.65;;
41799;SDS011;27468;47.460;19.034;2022-12-10T14:53:03;30.60;;;16.95;;
41799;SDS011;27468;47.460;19.034;2022-12-10T14:55:36;30.25;;;16.30;;
41799;SDS011;27468;47.460;19.034;2022-12-10T14:58:02;26.00;;;14.10;;
41799;SDS011;27468;47.460;19.034;2022-12-10T15:00:30;28.40;;;15.23;;
41799;SDS011;27468;47.460;19.034;2022-12-10T15:03:00;26.75;;;14.65;;
41799;SDS011;27468;47.460;19.034;2022-12-10T15:05:54;28.90;;;14.93;;
41799;SDS011;27468;47.460;19.034;2022-12-10T15:08:22;29.63;;;16.30;;
41799;SDS011;27468;47.460;19.034;2022-12-10T15:10:50;31.10;;;16.80;;
41799;SDS011;27468;47.460;19.034;2022-12-10T15:13:21;31.42;;;17.48;;
41799;SDS011;27468;47.460;19.034;2022-12-10T15:15:50;31.58;;;17.38;;
41799;SDS011;27468;47.460;19.034;2022-12-10T15:18:18;30.30;;;16.75;;
41799;SDS011;27468;47.460;19.034;2022-12-10T15:28:38;27.83;;;15.38;;
41799;SDS011;27468;47.460;19.034;2022-12-10T15:31:09;29.27;;;15.68;;
41799;SDS011;27468;47.460;19.034;2022-12-10T15:33:43;29.52;;;15.55;;
41799;SDS011;27468;47.460;19.034;2022-12-10T15:36:25;27.63;;;15.05;;
41799;SDS011;27468;47.460;19.034;2022-12-10T15:38:54;25.83;;;14.13;;
41799;SDS011;27468;47.460;19.034;2022-12-10T15:42:06;27.23;;;15.10;;
41799;SDS011;27468;47.460;19.034;2022-12-10T15:47:14;25.48;;;13.65;;
41799;SDS011;27468;47.460;19.034;2022-12-10T15:49:40;25.10;;;14.20;;
41799;SDS011;27468;47.460;19.034;2022-12-10T15:52:05;23.17;;;13.60;;
41799;SDS011;27468;47.460;19.034;2022-12-10T15:54:32;26.42;;;13.85;;
41799;SDS011;27468;47.460;19.034;2022-12-10T15:57:14;27.08;;;14.48;;
41799;SDS011;27468;47.460;19.034;2022-12-10T15:59:45;24.83;;;13.25;;
41799;SDS011;27468;47.460;19.034;2022-12-10T16:04:52;22.70;;;12.65;;
41799;SDS011;27468;47.460;19.034;2022-12-10T16:07:18;25.52;;;13.65;;
41799;SDS011;27468;47.460;19.034;2022-12-10T16:09:44;23.65;;;13.00;;
41799;SDS011;27468;47.460;19.034;2022-12-10T16:12:10;23.02;;;13.00;;
41799;SDS011;27468;47.460;19.034;2022-12-10T16:14:38;22.98;;;12.82;;
41799;SDS011;27468;47.460;19.034;2022-12-10T16:17:04;25.92;;;14.10;;
41799;SDS011;27468;47.460;19.034;2022-12-10T16:19:30;22.02;;;12.45;;
41799;SDS011;27468;47.460;19.034;2022-12-10T16:21:56;20.92;;;12.07;;
41799;SDS011;27468;47.460;19.034;2022-12-10T16:24:21;22.98;;;12.88;;
41799;SDS011;27468;47.460;19.034;2022-12-10T16:26:46;20.70;;;12.10;;
41799;SDS011;27468;47.460;19.034;2022-12-10T16:29:12;22.25;;;12.90;;
41799;SDS011;27468;47.460;19.034;2022-12-10T16:31:37;24.33;;;13.13;;
41799;SDS011;27468;47.460;19.034;2022-12-10T16:34:02;22.15;;;13.23;;
41799;SDS011;27468;47.460;19.034;2022-12-10T16:36:28;23.60;;;13.38;;
41799;SDS011;27468;47.460;19.034;2022-12-10T16:38:53;23.88;;;12.98;;
41799;SDS011;27468;47.460;19.034;2022-12-10T16:41:20;23.90;;;13.20;;
41799;SDS011;27468;47.460;19.034;2022-12-10T16:43:47;23.83;;;12.85;;